createdAt,value
2023-02-19T00:09:21.390Z,35.30
2023-02-19T00:19:22.837Z,24.63
2023-02-19T00:29:25.000Z,21.20
2023-02-19T00:39:26.421Z,25.60
2023-02-19T00:49:27.961Z,23.80
2023-02-19T00:59:29.332Z,26.70
2023-02-19T01:09:30.782Z,26.83
2023-02-19T01:19:32.205Z,26.17
2023-02-19T01:29:33.643Z,28.13
2023-02-19T01:39:35.157Z,22.33
2023-02-19T01:49:57.521Z,23.77
2023-02-19T02:00:10.048Z,24.73
2023-02-19T02:10:20.692Z,25.53
2023-02-19T02:20:52.411Z,24.33
2023-02-19T02:31:04.414Z,30.20
2023-02-19T02:41:06.720Z,30.13
2023-02-19T02:51:29.127Z,31.13
2023-02-19T03:01:53.744Z,28.73
2023-02-19T03:12:16.135Z,29.27
2023-02-19T03:22:22.774Z,20.47
2023-02-19T03:32:30.196Z,23.00
2023-02-19T03:42:56.160Z,25.08
2023-02-19T03:53:11.308Z,18.63
2023-02-19T04:03:23.144Z,22.47
2023-02-19T04:13:30.059Z,22.60
2023-02-19T04:23:37.662Z,21.13
2023-02-19T04:33:39.108Z,24.43
2023-02-19T04:43:40.498Z,18.70
2023-02-19T04:53:42.843Z,20.00
2023-02-19T05:03:45.023Z,22.17
2023-02-19T05:13:46.529Z,26.42
2023-02-19T05:23:48.000Z,15.10
2023-02-19T05:33:51.406Z,19.00
2023-02-19T05:43:53.307Z,22.23
2023-02-19T05:53:56.300Z,17.77
2023-02-19T06:03:58.506Z,19.40
2023-02-19T06:14:00.256Z,13.70
2023-02-19T06:24:08.654Z,15.52
2023-02-19T06:34:11.508Z,15.83
2023-02-19T06:44:12.891Z,18.77
2023-02-19T06:54:14.380Z,16.23
2023-02-19T07:04:15.911Z,13.00
2023-02-19T07:14:17.583Z,13.00
2023-02-19T07:24:21.366Z,13.37
2023-02-19T07:34:22.835Z,15.90
2023-02-19T07:44:24.166Z,15.70
2023-02-19T07:54:25.582Z,17.73
2023-02-19T08:04:27.071Z,21.92
2023-02-19T08:14:28.746Z,21.53
2023-02-19T08:24:31.209Z,16.50
2023-02-19T08:34:32.929Z,14.95
2023-02-19T08:44:34.892Z,15.90
2023-02-19T08:54:37.317Z,16.73
2023-02-19T09:04:39.486Z,18.70
2023-02-19T09:14:41.183Z,15.05
2023-02-19T09:24:43.693Z,14.43
2023-02-19T09:34:45.170Z,16.63
2023-02-19T09:44:53.035Z,16.92
2023-02-19T09:54:59.310Z,11.80
2023-02-19T10:05:02.608Z,11.37
2023-02-19T10:15:29.229Z,12.18
2023-02-19T10:25:33.007Z,9.32
2023-02-19T10:35:36.438Z,8.50
2023-02-19T10:45:56.113Z,9.00
2023-02-19T10:56:09.439Z,9.15
2023-02-19T11:06:13.212Z,8.67
2023-02-19T11:16:14.763Z,7.40
2023-02-19T11:26:20.818Z,6.60
2023-02-19T11:36:29.971Z,6.43
2023-02-19T11:46:35.352Z,8.37
2023-02-19T11:56:40.791Z,6.68
2023-02-19T12:07:16.881Z,7.32
2023-02-19T12:17:53.984Z,6.70
2023-02-19T12:28:14.342Z,5.57
2023-02-19T12:38:53.097Z,5.60
2023-02-19T12:49:13.206Z,5.83
2023-02-19T12:59:29.292Z,5.40
2023-02-19T13:09:33.873Z,7.18
2023-02-19T13:19:37.142Z,6.30
2023-02-19T13:30:12.579Z,7.27
2023-02-19T13:40:26.681Z,5.70
2023-02-19T13:50:34.350Z,7.95
2023-02-19T14:00:51.047Z,8.83
2023-02-19T14:10:57.960Z,8.73
2023-02-19T14:21:26.007Z,6.32
2023-02-19T14:31:29.323Z,9.03
2023-02-19T14:41:34.126Z,10.87
2023-02-19T14:51:40.188Z,9.25
2023-02-19T15:01:41.692Z,12.20
2023-02-19T15:11:43.503Z,10.73
2023-02-19T15:21:47.788Z,11.25
2023-02-19T15:31:53.087Z,9.40
2023-02-19T15:42:00.078Z,9.77
2023-02-19T15:52:10.501Z,7.43
2023-02-19T16:02:14.266Z,8.13
2023-02-19T16:12:24.587Z,5.07
2023-02-19T16:22:29.183Z,7.27
2023-02-19T16:32:30.723Z,5.22
2023-02-19T16:42:32.150Z,6.53
2023-02-19T16:52:33.624Z,8.23
2023-02-19T17:02:35.174Z,7.32
2023-02-19T17:12:36.522Z,8.10
2023-02-19T17:22:38.026Z,6.97
2023-02-19T17:32:39.761Z,9.20
2023-02-19T17:42:41.322Z,11.70
2023-02-19T17:52:42.884Z,9.77
2023-02-19T18:02:44.302Z,9.37
2023-02-19T18:12:45.850Z,6.20
2023-02-19T18:22:47.706Z,6.47
2023-02-19T18:32:50.346Z,5.87
2023-02-19T18:42:52.123Z,6.72
2023-02-19T18:52:53.582Z,6.68
2023-02-19T19:02:57.880Z,8.73
2023-02-19T19:12:59.405Z,8.73
2023-02-19T19:23:00.888Z,8.52
2023-02-19T19:33:03.419Z,9.33
2023-02-19T19:43:05.795Z,9.13
2023-02-19T19:53:07.264Z,11.20
2023-02-19T20:03:09.542Z,9.67
2023-02-19T20:13:11.085Z,11.20
2023-02-19T20:23:12.486Z,9.18
2023-02-19T20:33:14.041Z,11.00
2023-02-19T20:43:15.403Z,11.27
2023-02-19T20:53:16.878Z,9.63
2023-02-19T21:03:18.305Z,11.63
2023-02-19T21:13:19.665Z,9.47
2023-02-19T21:23:21.106Z,7.63
2023-02-19T21:33:22.522Z,10.48
2023-02-19T21:43:24.060Z,8.67
2023-02-19T21:53:25.405Z,9.03
2023-02-19T22:03:26.835Z,10.27
2023-02-19T22:13:28.174Z,11.48
2023-02-19T22:23:29.599Z,8.57
2023-02-19T22:33:31.171Z,7.27
2023-02-19T22:43:32.643Z,7.22
2023-02-19T22:53:34.085Z,6.53
2023-02-19T23:03:44.968Z,5.90
2023-02-19T23:13:46.438Z,5.97
2023-02-19T23:23:48.402Z,6.50
2023-02-19T23:33:49.789Z,6.63
2023-02-19T23:43:52.351Z,7.90
2023-02-19T23:53:53.864Z,9.43
